sensor_id;sensor_type;location;lat;lon;timestamp;pressure;altitude;pressure_sealevel;temperature;humidity
58967;BME280;44744;51.894;5.080;2023-09-30T00:00:55;102581.91;;;13.53;83.35
58967;BME280;44744;51.894;5.080;2023-09-30T00:01:55;102584.23;;;13.53;83.45
58967;BME280;44744;51.894;5.080;2023-09-30T00:02:55;102584.23;;;13.53;83.54
58967;BME280;44744;51.894;5.080;2023-09-30T00:03:56;102587.11;;;13.52;83.44
58967;BME280;44744;51.894;5.080;2023-09-30T00:04:56;102583.94;;;13.52;83.55
58967;BME280;44744;51.894;5.080;2023-09-30T00:05:56;102583.73;;;13.52;83.46
58967;BME280;44744;51.894;5.080;2023-09-30T00:06:57;102581.39;;;13.53;83.50
58967;BME280;44744;51.894;5.080;2023-09-30T00:07:57;102582.09;;;13.54;83.68
58967;BME280;44744;51.894;5.080;2023-09-30T00:08:57;102584.20;;;13.54;83.52
58967;BME280;44744;51.894;5.080;2023-09-30T00:09:58;102580.31;;;13.54;83.55
58967;BME280;44744;51.894;5.080;2023-09-30T00:10:58;102583.52;;;13.53;83.53
58967;BME280;44744;51.894;5.080;2023-09-30T00:11:59;102582.24;;;13.54;83.62
58967;BME280;44744;51.894;5.080;2023-09-30T00:12:59;102587.58;;;13.54;83.76
58967;BME280;44744;51.894;5.080;2023-09-30T00:13:59;102588.97;;;13.55;83.81
58967;BME280;44744;51.894;5.080;2023-09-30T00:14:59;102591.96;;;13.55;83.80
58967;BME280;44744;51.894;5.080;2023-09-30T00:16:00;102594.98;;;13.55;83.75
58967;BME280;44744;51.894;5.080;2023-09-30T00:17:00;102592.66;;;13.56;83.86
58967;BME280;44744;51.894;5.080;2023-09-30T00:18:01;102590.34;;;13.56;83.89
58967;BME280;44744;51.894;5.080;2023-09-30T00:19:04;102590.84;;;13.57;83.80
58967;BME280;44744;51.894;5.080;2023-09-30T00:20:05;102593.48;;;13.57;83.85
58967;BME280;44744;51.894;5.080;2023-09-30T00:21:05;102595.45;;;13.57;83.86
58967;BME280;44744;51.894;5.080;2023-09-30T00:22:06;102597.20;;;13.58;83.93
58967;BME280;44744;51.894;5.080;2023-09-30T00:23:06;102592.89;;;13.59;83.96
58967;BME280;44744;51.894;5.080;2023-09-30T00:24:06;102593.61;;;13.58;83.79
58967;BME280;44744;51.894;5.080;2023-09-30T00:25:08;102593.23;;;13.59;84.11
58967;BME280;44744;51.894;5.080;2023-09-30T00:26:08;102596.61;;;13.59;84.01
58967;BME280;44744;51.894;5.080;2023-09-30T00:27:09;102599.95;;;13.60;84.03
58967;BME280;44744;51.894;5.080;2023-09-30T00:28:09;102601.68;;;13.61;84.15
58967;BME280;44744;51.894;5.080;2023-09-30T00:29:09;102601.85;;;13.61;84.14
58967;BME280;44744;51.894;5.080;2023-09-30T00:30:10;102602.73;;;13.62;84.15
58967;BME280;44744;51.894;5.080;2023-09-30T00:31:10;102602.16;;;13.62;84.16
58967;BME280;44744;51.894;5.080;2023-09-30T00:32:10;102603.35;;;13.63;84.18
58967;BME280;44744;51.894;5.080;2023-09-30T00:33:11;102602.45;;;13.64;84.21
58967;BME280;44744;51.894;5.080;2023-09-30T00:34:11;102604.23;;;13.64;84.19
58967;BME280;44744;51.894;5.080;2023-09-30T00:35:11;102604.75;;;13.64;84.25
58967;BME280;44744;51.894;5.080;2023-09-30T00:36:11;102604.71;;;13.65;84.22
58967;BME280;44744;51.894;5.080;2023-09-30T00:37:12;102606.10;;;13.66;84.23
58967;BME280;44744;51.894;5.080;2023-09-30T00:38:12;102601.98;;;13.67;84.25
58967;BME280;44744;51.894;5.080;2023-09-30T00:39:13;102599.64;;;13.68;84.38
58967;BME280;44744;51.894;5.080;2023-09-30T00:40:13;102596.45;;;13.68;84.22
58967;BME280;44744;51.894;5.080;2023-09-30T00:41:14;102597.14;;;13.69;84.42
58967;BME280;44744;51.894;5.080;2023-09-30T00:42:14;102596.41;;;13.69;84.54
58967;BME280;44744;51.894;5.080;2023-09-30T00:43:20;102597.45;;;13.70;84.19
58967;BME280;44744;51.894;5.080;2023-09-30T00:44:21;102597.98;;;13.69;84.19
58967;BME280;44744;51.894;5.080;2023-09-30T00:45:21;102596.39;;;13.69;84.30
58967;BME280;44744;51.894;5.080;2023-09-30T00:46:31;102594.93;;;13.70;84.30
58967;BME280;44744;51.894;5.080;2023-09-30T00:47:33;102590.31;;;13.70;84.26
58967;BME280;44744;51.894;5.080;2023-09-30T00:48:34;102588.73;;;13.70;84.33
58967;BME280;44744;51.894;5.080;2023-09-30T00:49:34;102592.98;;;13.70;84.41
58967;BME280;44744;51.894;5.080;2023-09-30T00:50:34;102597.97;;;13.70;84.32
58967;BME280;44744;51.894;5.080;2023-09-30T00:51:35;102599.40;;;13.70;84.40
58967;BME280;44744;51.894;5.080;2023-09-30T00:52:36;102604.54;;;13.70;84.34
58967;BME280;44744;51.894;5.080;2023-09-30T00:53:38;102607.60;;;13.70;84.28
58967;BME280;44744;51.894;5.080;2023-09-30T00:54:39;102606.03;;;13.69;84.34
58967;BME280;44744;51.894;5.080;2023-09-30T00:55:39;102607.09;;;13.68;84.26
58967;BME280;44744;51.894;5.080;2023-09-30T00:56:44;102608.34;;;13.68;84.25
58967;BME280;44744;51.894;5.080;2023-09-30T00:57:44;102612.48;;;13.67;84.06
58967;BME280;44744;51.894;5.080;2023-09-30T00:58:48;102617.12;;;13.66;84.23
58967;BME280;44744;51.894;5.080;2023-09-30T00:59:50;102620.02;;;13.64;84.37
58967;BME280;44744;51.894;5.080;2023-09-30T01:00:50;102620.92;;;13.64;84.26
58967;BME280;44744;51.894;5.080;2023-09-30T01:01:53;102617.67;;;13.61;84.33
58967;BME280;44744;51.894;5.080;2023-09-30T01:02:54;102617.52;;;13.61;84.41
58967;BME280;44744;51.894;5.080;2023-09-30T01:03:54;102612.53;;;13.61;84.37
58967;BME280;44744;51.894;5.080;2023-09-30T01:04:55;102610.77;;;13.60;84.39
58967;BME280;44744;51.894;5.080;2023-09-30T01:05:55;102608.45;;;13.61;84.35
58967;BME280;44744;51.894;5.080;2023-09-30T01:06:55;102611.48;;;13.60;84.31
58967;BME280;44744;51.894;5.080;2023-09-30T01:07:56;102617.55;;;13.60;84.22
58967;BME280;44744;51.894;5.080;2023-09-30T01:08:56;102620.58;;;13.60;84.23
58967;BME280;44744;51.894;5.080;2023-09-30T01:09:57;102617.95;;;13.59;84.14
58967;BME280;44744;51.894;5.080;2023-09-30T01:10:58;102618.34;;;13.58;84.03
58967;BME280;44744;51.894;5.080;2023-09-30T01:11:58;102621.59;;;13.57;84.35
58967;BME280;44744;51.894;5.080;2023-09-30T01:12:59;102626.58;;;13.56;84.25
58967;BME280;44744;51.894;5.080;2023-09-30T01:13:59;102631.57;;;13.56;84.35
58967;BME280;44744;51.894;5.080;2023-09-30T01:14:59;102634.81;;;13.55;84.34
58967;BME280;44744;51.894;5.080;2023-09-30T01:16:05;102637.85;;;13.54;84.23
58967;BME280;44744;51.894;5.080;2023-09-30T01:17:06;102644.29;;;13.54;84.36
58967;BME280;44744;51.894;5.080;2023-09-30T01:18:06;102648.39;;;13.54;84.34
58967;BME280;44744;51.894;5.080;2023-09-30T01:19:07;102650.52;;;13.54;84.32
58967;BME280;44744;51.894;5.080;2023-09-30T01:20:09;102651.41;;;13.53;84.37
58967;BME280;44744;51.894;5.080;2023-09-30T01:21:13;102646.47;;;13.52;84.39
58967;BME280;44744;51.894;5.080;2023-09-30T01:22:13;102639.18;;;13.52;84.33
58967;BME280;44744;51.894;5.080;2023-09-30T01:23:13;102641.88;;;13.51;84.44
58967;BME280;44744;51.894;5.080;2023-09-30T01:24:14;102644.19;;;13.51;84.26
58967;BME280;44744;51.894;5.080;2023-09-30T01:25:15;102650.61;;;13.51;84.36
58967;BME280;44744;51.894;5.080;2023-09-30T01:26:15;102647.95;;;13.51;84.34
58967;BME280;44744;51.894;5.080;2023-09-30T01:27:15;102647.96;;;13.50;84.54
58967;BME280;44744;51.894;5.080;2023-09-30T01:28:16;102646.22;;;13.49;84.38
58967;BME280;44744;51.894;5.080;2023-09-30T01:29:16;102648.35;;;13.50;84.45
58967;BME280;44744;51.894;5.080;2023-09-30T01:30:16;102648.17;;;13.49;84.42
58967;BME280;44744;51.894;5.080;2023-09-30T01:31:17;102647.83;;;13.49;84.42
58967;BME280;44744;51.894;5.080;2023-09-30T01:32:17;102647.29;;;13.49;84.48
58967;BME280;44744;51.894;5.080;2023-09-30T01:33:17;102649.77;;;13.50;84.49
58967;BME280;44744;51.894;5.080;2023-09-30T01:34:18;102648.54;;;13.50;84.68
58967;BME280;44744;51.894;5.080;2023-09-30T01:35:18;102646.95;;;13.49;84.68
58967;BME280;44744;51.894;5.080;2023-09-30T01:36:18;102642.49;;;13.49;84.56
58967;BME280;44744;51.894;5.080;2023-09-30T01:37:18;102639.31;;;13.48;84.48
58967;BME280;44744;51.894;5.080;2023-09-30T01:38:21;102638.42;;;13.49;84.59
58967;BME280;44744;51.894;5.080;2023-09-30T01:39:22;102636.11;;;13.48;84.64
58967;BME280;44744;51.894;5.080;2023-09-30T01:40:22;102637.88;;;13.49;84.70
58967;BME280;44744;51.894;5.080;2023-09-30T01:41:23;102635.23;;;13.48;84.64
58967;BME280;44744;51.894;5.080;2023-09-30T01:42:23;102634.67;;;13.49;84.60
58967;BME280;44744;51.894;5.080;2023-09-30T01:43:23;102630.77;;;13.49;84.67
58967;BME280;44744;51.894;5.080;2023-09-30T01:44:23;102627.92;;;13.49;84.73
58967;BME280;44744;51.894;5.080;2023-09-30T01:45:24;102629.38;;;13.48;84.87
58967;BME280;44744;51.894;5.080;2023-09-30T01:46:24;102631.70;;;13.48;84.98
58967;BME280;44744;51.894;5.080;2023-09-30T01:47:24;102630.31;;;13.47;84.89
58967;BME280;44744;51.894;5.080;2023-09-30T01:48:24;102629.27;;;13.47;84.79
58967;BME280;44744;51.894;5.080;2023-09-30T01:49:25;102628.05;;;13.46;84.89
58967;BME280;44744;51.894;5.080;2023-09-30T01:50:25;102626.64;;;13.46;84.71
58967;BME280;44744;51.894;5.080;2023-09-30T01:51:26;102625.06;;;13.45;84.87
58967;BME280;44744;51.894;5.080;2023-09-30T01:52:26;102628.79;;;13.45;84.77
58967;BME280;44744;51.894;5.080;2023-09-30T01:53:26;102627.73;;;13.45;84.71
58967;BME280;44744;51.894;5.080;2023-09-30T01:54:27;102632.91;;;13.45;84.76
58967;BME280;44744;51.894;5.080;2023-09-30T01:55:27;102628.10;;;13.45;84.83
58967;BME280;44744;51.894;5.080;2023-09-30T01:56:27;102632.90;;;13.45;84.82
58967;BME280;44744;51.894;5.080;2023-09-30T01:57:27;102632.40;;;13.44;84.82
58967;BME280;44744;51.894;5.080;2023-09-30T01:58:28;102635.23;;;13.44;84.92
58967;BME280;44744;51.894;5.080;2023-09-30T01:59:28;102628.84;;;13.44;84.83
58967;BME280;44744;51.894;5.080;2023-09-30T02:00:28;102632.20;;;13.44;84.92
58967;BME280;44744;51.894;5.080;2023-09-30T02:01:29;102627.56;;;13.45;85.05
58967;BME280;44744;51.894;5.080;2023-09-30T02:02:29;102627.39;;;13.45;84.95
58967;BME280;44744;51.894;5.080;2023-09-30T02:03:29;102623.45;;;13.45;85.03
58967;BME280;44744;51.894;5.080;2023-09-30T02:04:29;102626.63;;;13.46;84.91
58967;BME280;44744;51.894;5.080;2023-09-30T02:05:30;102631.95;;;13.46;85.08
58967;BME280;44744;51.894;5.080;2023-09-30T02:06:30;102634.64;;;13.46;85.07
58967;BME280;44744;51.894;5.080;2023-09-30T02:07:30;102638.00;;;13.46;85.17
58967;BME280;44744;51.894;5.080;2023-09-30T02:08:30;102640.83;;;13.46;84.93
58967;BME280;44744;51.894;5.080;2023-09-30T02:09:31;102640.30;;;13.46;84.92
58967;BME280;44744;51.894;5.080;2023-09-30T02:10:32;102643.89;;;13.46;84.94
58967;BME280;44744;51.894;5.080;2023-09-30T02:11:32;102642.35;;;13.44;85.03
58967;BME280;44744;51.894;5.080;2023-09-30T02:12:33;102641.84;;;13.43;84.99
58967;BME280;44744;51.894;5.080;2023-09-30T02:13:33;102642.39;;;13.43;85.05
58967;BME280;44744;51.894;5.080;2023-09-30T02:14:34;102641.31;;;13.43;85.24
58967;BME280;44744;51.894;5.080;2023-09-30T02:15:34;102645.23;;;13.43;84.94
58967;BME280;44744;51.894;5.080;2023-09-30T02:16:34;102648.10;;;13.42;85.06
58967;BME280;44744;51.894;5.080;2023-09-30T02:17:34;102648.29;;;13.42;85.07
58967;BME280;44744;51.894;5.080;2023-09-30T02:18:35;102652.37;;;13.42;85.05
58967;BME280;44744;51.894;5.080;2023-09-30T02:19:35;102649.38;;;13.41;85.05
58967;BME280;44744;51.894;5.080;2023-09-30T02:20:36;102647.62;;;13.41;84.98
58967;BME280;44744;51.894;5.080;2023-09-30T02:21:37;102645.33;;;13.41;85.20
58967;BME280;44744;51.894;5.080;2023-09-30T02:22:37;102643.20;;;13.40;85.21
58967;BME280;44744;51.894;5.080;2023-09-30T02:23:37;102641.79;;;13.40;85.23
58967;BME280;44744;51.894;5.080;2023-09-30T02:24:37;102638.60;;;13.40;85.12
58967;BME280;44744;51.894;5.080;2023-09-30T02:25:41;102635.23;;;13.40;85.18
58967;BME280;44744;51.894;5.080;2023-09-30T02:26:41;102634.88;;;13.40;85.18
58967;BME280;44744;51.894;5.080;2023-09-30T02:27:42;102638.44;;;13.39;85.11
58967;BME280;44744;51.894;5.080;2023-09-30T02:28:43;102639.36;;;13.39;85.28
58967;BME280;44744;51.894;5.080;2023-09-30T02:29:43;102635.46;;;13.38;85.17
58967;BME280;44744;51.894;5.080;2023-09-30T02:30:43;102631.73;;;13.38;85.25
58967;BME280;44744;51.894;5.080;2023-09-30T02:31:44;102626.74;;;13.38;85.24
58967;BME280;44744;51.894;5.080;2023-09-30T02:32:44;102623.52;;;13.39;85.36
58967;BME280;44744;51.894;5.080;2023-09-30T02:33:44;102620.66;;;13.39;85.19
58967;BME280;44744;51.894;5.080;2023-09-30T02:34:44;102620.47;;;13.40;85.36
58967;BME280;44744;51.894;5.080;2023-09-30T02:35:45;102613.58;;;13.39;85.34
58967;BME280;44744;51.894;5.080;2023-09-30T02:36:45;102617.11;;;13.39;85.33
58967;BME280;44744;51.894;5.080;2023-09-30T02:37:46;102621.72;;;13.40;85.50
58967;BME280;44744;51.894;5.080;2023-09-30T02:38:46;102619.42;;;13.39;85.55
58967;BME280;44744;51.894;5.080;2023-09-30T02:39:46;102616.55;;;13.40;85.43
58967;BME280;44744;51.894;5.080;2023-09-30T02:40:47;102616.70;;;13.41;85.42
58967;BME280;44744;51.894;5.080;2023-09-30T02:41:48;102618.86;;;13.40;85.55
58967;BME280;44744;51.894;5.080;2023-09-30T02:42:48;102616.52;;;13.41;85.55
58967;BME280;44744;51.894;5.080;2023-09-30T02:43:48;102619.52;;;13.42;85.50
58967;BME280;44744;51.894;5.080;2023-09-30T02:44:49;102617.21;;;13.41;85.51
58967;BME280;44744;51.894;5.080;2023-09-30T02:45:49;102620.40;;;13.42;85.63
58967;BME280;44744;51.894;5.080;2023-09-30T02:46:49;102618.63;;;13.42;85.70
58967;BME280;44744;51.894;5.080;2023-09-30T02:47:49;102618.45;;;13.42;85.45
58967;BME280;44744;51.894;5.080;2023-09-30T02:48:50;102609.55;;;13.42;85.68
58967;BME280;44744;51.894;5.080;2023-09-30T02:49:50;102612.40;;;13.42;85.69
58967;BME280;44744;51.894;5.080;2023-09-30T02:50:50;102609.05;;;13.41;85.55
58967;BME280;44744;51.894;5.080;2023-09-30T02:51:50;102612.97;;;13.41;85.66
58967;BME280;44744;51.894;5.080;2023-09-30T02:52:51;102618.29;;;13.42;85.64
58967;BME280;44744;51.894;5.080;2023-09-30T02:53:51;102615.99;;;13.41;85.76
58967;BME280;44744;51.894;5.080;2023-09-30T02:54:51;102615.46;;;13.41;85.58
58967;BME280;44744;51.894;5.080;2023-09-30T02:55:51;102615.80;;;13.41;85.65
58967;BME280;44744;51.894;5.080;2023-09-30T02:56:52;102618.33;;;13.40;85.75
58967;BME280;44744;51.894;5.080;2023-09-30T02:57:52;102619.95;;;13.40;85.66
58967;BME280;44744;51.894;5.080;2023-09-30T02:58:52;102622.11;;;13.39;85.63
58967;BME280;44744;51.894;5.080;2023-09-30T02:59:53;102621.03;;;13.39;85.77
58967;BME280;44744;51.894;5.080;2023-09-30T03:00:53;102618.91;;;13.39;85.98
58967;BME280;44744;51.894;5.080;2023-09-30T03:01:53;102622.80;;;13.39;85.75
58967;BME280;44744;51.894;5.080;2023-09-30T03:02:53;102626.17;;;13.40;85.79
58967;BME280;44744;51.894;5.080;2023-09-30T03:03:54;102628.36;;;13.38;85.72
58967;BME280;44744;51.894;5.080;2023-09-30T03:04:55;102630.85;;;13.38;85.99
58967;BME280;44744;51.894;5.080;2023-09-30T03:05:55;102629.79;;;13.38;85.73
58967;BME280;44744;51.894;5.080;2023-09-30T03:06:55;102626.59;;;13.38;85.91
58967;BME280;44744;51.894;5.080;2023-09-30T03:07:56;102624.98;;;13.38;85.92
58967;BME280;44744;51.894;5.080;2023-09-30T03:08:56;102623.40;;;13.38;85.77
58967;BME280;44744;51.894;5.080;2023-09-30T03:09:56;102621.33;;;13.36;85.86
58967;BME280;44744;51.894;5.080;2023-09-30T03:10:57;102619.20;;;13.36;85.82
58967;BME280;44744;51.894;5.080;2023-09-30T03:11:57;102619.05;;;13.35;85.91
58967;BME280;44744;51.894;5.080;2023-09-30T03:12:57;102610.67;;;13.36;86.07
58967;BME280;44744;51.894;5.080;2023-09-30T03:13:58;102617.41;;;13.36;86.05
58967;BME280;44744;51.894;5.080;2023-09-30T03:14:58;102611.39;;;13.36;86.09
58967;BME280;44744;51.894;5.080;2023-09-30T03:16:21;102614.21;;;13.36;86.04
58967;BME280;44744;51.894;5.080;2023-09-30T03:17:21;102615.15;;;13.34;85.93
58967;BME280;44744;51.894;5.080;2023-09-30T03:18:22;102618.27;;;13.31;86.40
58967;BME280;44744;51.894;5.080;2023-09-30T03:19:23;102620.94;;;13.31;86.21
58967;BME280;44744;51.894;5.080;2023-09-30T03:20:23;102622.92;;;13.31;86.10
58967;BME280;44744;51.894;5.080;2023-09-30T03:21:23;102619.89;;;13.31;86.11
58967;BME280;44744;51.894;5.080;2023-09-30T03:22:25;102620.80;;;13.30;86.11
58967;BME280;44744;51.894;5.080;2023-09-30T03:23:27;102619.75;;;13.30;86.18
58967;BME280;44744;51.894;5.080;2023-09-30T03:24:27;102620.80;;;13.30;86.14
58967;BME280;44744;51.894;5.080;2023-09-30T03:25:28;102619.76;;;13.30;86.21
58967;BME280;44744;51.894;5.080;2023-09-30T03:26:28;102623.65;;;13.30;86.26
58967;BME280;44744;51.894;5.080;2023-09-30T03:27:29;102624.38;;;13.30;86.36
58967;BME280;44744;51.894;5.080;2023-09-30T03:28:29;102615.33;;;13.29;86.42
58967;BME280;44744;51.894;5.080;2023-09-30T03:29:29;102617.42;;;13.30;86.30
58967;BME280;44744;51.894;5.080;2023-09-30T03:30:30;102613.71;;;13.30;86.41
58967;BME280;44744;51.894;5.080;2023-09-30T03:31:30;102612.30;;;13.29;86.36
58967;BME280;44744;51.894;5.080;2023-09-30T03:32:30;102613.89;;;13.29;86.25
58967;BME280;44744;51.894;5.080;2023-09-30T03:33:32;102614.06;;;13.30;86.35
58967;BME280;44744;51.894;5.080;2023-09-30T03:34:34;102615.32;;;13.30;86.26
58967;BME280;44744;51.894;5.080;2023-09-30T03:35:34;102617.29;;;13.29;86.42
58967;BME280;44744;51.894;5.080;2023-09-30T03:36:34;102618.41;;;13.28;86.24
58967;BME280;44744;51.894;5.080;2023-09-30T03:37:35;102611.89;;;13.27;86.21
58967;BME280;44744;51.894;5.080;2023-09-30T03:38:35;102613.52;;;13.26;86.32
58967;BME280;44744;51.894;5.080;2023-09-30T03:39:35;102615.48;;;13.25;86.27
58967;BME280;44744;51.894;5.080;2023-09-30T03:40:36;102613.71;;;13.25;86.34
58967;BME280;44744;51.894;5.080;2023-09-30T03:41:36;102611.41;;;13.25;86.53
58967;BME280;44744;51.894;5.080;2023-09-30T03:42:36;102614.44;;;13.25;86.42
58967;BME280;44744;51.894;5.080;2023-09-30T03:43:36;102613.91;;;13.25;86.41
58967;BME280;44744;51.894;5.080;2023-09-30T03:44:37;102616.23;;;13.24;86.46
58967;BME280;44744;51.894;5.080;2023-09-30T03:45:37;102619.48;;;13.23;86.60
58967;BME280;44744;51.894;5.080;2023-09-30T03:46:38;102619.13;;;13.23;86.53
58967;BME280;44744;51.894;5.080;2023-09-30T03:47:39;102619.33;;;13.23;86.59
58967;BME280;44744;51.894;5.080;2023-09-30T03:48:40;102618.64;;;13.22;86.56
58967;BME280;44744;51.894;5.080;2023-09-30T03:49:41;102620.40;;;13.22;86.72
58967;BME280;44744;51.894;5.080;2023-09-30T03:50:41;102616.67;;;13.22;86.54
58967;BME280;44744;51.894;5.080;2023-09-30T03:51:42;102614.05;;;13.21;86.67
58967;BME280;44744;51.894;5.080;2023-09-30T03:52:43;102614.03;;;13.21;86.48
58967;BME280;44744;51.894;5.080;2023-09-30T03:53:45;102614.06;;;13.21;86.80
58967;BME280;44744;51.894;5.080;2023-09-30T03:54:47;102610.33;;;13.21;86.60
58967;BME280;44744;51.894;5.080;2023-09-30T03:55:47;102613.19;;;13.20;86.66
58967;BME280;44744;51.894;5.080;2023-09-30T03:56:47;102612.33;;;13.20;86.72
58967;BME280;44744;51.894;5.080;2023-09-30T03:58:23;102614.11;;;13.19;86.65
58967;BME280;44744;51.894;5.080;2023-09-30T03:59:23;102615.13;;;13.16;86.71
58967;BME280;44744;51.894;5.080;2023-09-30T04:00:24;102613.36;;;13.15;86.68
58967;BME280;44744;51.894;5.080;2023-09-30T04:01:24;102611.94;;;13.15;86.64
58967;BME280;44744;51.894;5.080;2023-09-30T04:02:24;102611.75;;;13.16;86.63
58967;BME280;44744;51.894;5.080;2023-09-30T04:03:24;102618.52;;;13.15;86.61
58967;BME280;44744;51.894;5.080;2023-09-30T04:04:25;102619.23;;;13.15;86.76
58967;BME280;44744;51.894;5.080;2023-09-30T04:05:25;102619.25;;;13.15;86.81
58967;BME280;44744;51.894;5.080;2023-09-30T04:06:25;102621.72;;;13.15;86.69
58967;BME280;44744;51.894;5.080;2023-09-30T04:07:26;102624.91;;;13.15;86.78
58967;BME280;44744;51.894;5.080;2023-09-30T04:08:26;102619.76;;;13.15;86.61
58967;BME280;44744;51.894;5.080;2023-09-30T04:09:26;102616.73;;;13.15;86.79
58967;BME280;44744;51.894;5.080;2023-09-30T04:10:26;102613.73;;;13.15;86.64
58967;BME280;44744;51.894;5.080;2023-09-30T04:11:27;102612.30;;;13.15;86.65
58967;BME280;44744;51.894;5.080;2023-09-30T04:12:27;102614.34;;;13.13;86.70
58967;BME280;44744;51.894;5.080;2023-09-30T04:13:27;102616.68;;;13.12;86.68
58967;BME280;44744;51.894;5.080;2023-09-30T04:14:28;102619.00;;;13.12;86.84
58967;BME280;44744;51.894;5.080;2023-09-30T04:15:28;102620.77;;;13.12;86.78
58967;BME280;44744;51.894;5.080;2023-09-30T04:16:28;102618.50;;;13.11;86.54
58967;BME280;44744;51.894;5.080;2023-09-30T04:17:28;102619.80;;;13.10;86.67
58967;BME280;44744;51.894;5.080;2023-09-30T04:18:29;102619.10;;;13.09;86.79
58967;BME280;44744;51.894;5.080;2023-09-30T04:19:29;102618.77;;;13.09;86.78
58967;BME280;44744;51.894;5.080;2023-09-30T04:20:29;102623.20;;;13.09;86.88
58967;BME280;44744;51.894;5.080;2023-09-30T04:21:29;102620.73;;;13.09;86.82
58967;BME280;44744;51.894;5.080;2023-09-30T04:22:30;102616.85;;;13.08;86.77
58967;BME280;44744;51.894;5.080;2023-09-30T04:23:30;102616.34;;;13.07;86.60
58967;BME280;44744;51.894;5.080;2023-09-30T04:24:30;102615.97;;;13.08;86.78
58967;BME280;44744;51.894;5.080;2023-09-30T04:25:30;102617.75;;;13.07;86.84
58967;BME280;44744;51.894;5.080;2023-09-30T04:26:31;102620.40;;;13.08;86.83
58967;BME280;44744;51.894;5.080;2023-09-30T04:27:31;102618.83;;;13.07;86.84
58967;BME280;44744;51.894;5.080;2023-09-30T04:28:31;102620.62;;;13.06;87.01
58967;BME280;44744;51.894;5.080;2023-09-30T04:29:32;102623.09;;;13.07;87.00
58967;BME280;44744;51.894;5.080;2023-09-30T04:30:32;102622.94;;;13.06;87.02
58967;BME280;44744;51.894;5.080;2023-09-30T04:31:32;102626.48;;;13.07;86.86
58967;BME280;44744;51.894;5.080;2023-09-30T04:32:33;102627.59;;;13.05;86.96
58967;BME280;44744;51.894;5.080;2023-09-30T04:33:33;102628.30;;;13.06;87.01
58967;BME280;44744;51.894;5.080;2023-09-30T04:34:33;102629.19;;;13.06;86.96
58967;BME280;44744;51.894;5.080;2023-09-30T04:35:34;102628.30;;;13.06;86.98
58967;BME280;44744;51.894;5.080;2023-09-30T04:36:34;102630.27;;;13.05;87.15
58967;BME280;44744;51.894;5.080;2023-09-30T04:37:34;102632.58;;;13.05;87.05
58967;BME280;44744;51.894;5.080;2023-09-30T04:38:35;102634.36;;;13.05;86.83
58967;BME280;44744;51.894;5.080;2023-09-30T04:39:35;102634.75;;;13.04;87.00
58967;BME280;44744;51.894;5.080;2023-09-30T04:40:35;102636.00;;;13.04;87.01
58967;BME280;44744;51.894;5.080;2023-09-30T04:41:36;102638.69;;;13.03;86.98
58967;BME280;44744;51.894;5.080;2023-09-30T04:42:36;102638.34;;;13.03;86.88
58967;BME280;44744;51.894;5.080;2023-09-30T04:43:36;102641.92;;;13.02;86.86
58967;BME280;44744;51.894;5.080;2023-09-30T04:44:38;102640.34;;;13.02;86.88
58967;BME280;44744;51.894;5.080;2023-09-30T04:45:38;102638.44;;;13.00;87.06
58967;BME280;44744;51.894;5.080;2023-09-30T04:46:38;102634.94;;;12.99;86.97
58967;BME280;44744;51.894;5.080;2023-09-30T04:47:39;102637.46;;;12.98;87.00
58967;BME280;44744;51.894;5.080;2023-09-30T04:48:40;102638.52;;;12.98;87.16
58967;BME280;44744;51.894;5.080;2023-09-30T04:49:40;102639.42;;;12.98;86.96
58967;BME280;44744;51.894;5.080;2023-09-30T04:50:40;102641.58;;;12.96;87.18
58967;BME280;44744;51.894;5.080;2023-09-30T04:51:41;102640.69;;;12.97;87.12
58967;BME280;44744;51.894;5.080;2023-09-30T04:52:41;102639.09;;;12.97;87.17
58967;BME280;44744;51.894;5.080;2023-09-30T04:53:42;102638.07;;;12.96;87.05
58967;BME280;44744;51.894;5.080;2023-09-30T04:54:42;102640.19;;;12.96;87.18
58967;BME280;44744;51.894;5.080;2023-09-30T04:55:43;102638.26;;;12.95;87.16
58967;BME280;44744;51.894;5.080;2023-09-30T04:56:44;102641.82;;;12.95;87.25
58967;BME280;44744;51.894;5.080;2023-09-30T04:57:45;102643.98;;;12.94;87.12
58967;BME280;44744;51.894;5.080;2023-09-30T04:58:46;102644.36;;;12.94;87.21
58967;BME280;44744;51.894;5.080;2023-09-30T04:59:46;102645.62;;;12.93;87.12
58967;BME280;44744;51.894;5.080;2023-09-30T05:00:46;102643.67;;;12.93;87.05
58967;BME280;44744;51.894;5.080;2023-09-30T05:01:47;102646.35;;;12.92;87.15
58967;BME280;44744;51.894;5.080;2023-09-30T05:02:47;102643.77;;;12.90;87.40
58967;BME280;44744;51.894;5.080;2023-09-30T05:03:47;102640.09;;;12.89;87.33
58967;BME280;44744;51.894;5.080;2023-09-30T05:04:48;102642.22;;;12.89;87.28
58967;BME280;44744;51.894;5.080;2023-09-30T05:05:48;102641.54;;;12.88;87.35
58967;BME280;44744;51.894;5.080;2023-09-30T05:06:48;102649.89;;;12.88;87.38
58967;BME280;44744;51.894;5.080;2023-09-30T05:07:48;102649.71;;;12.88;87.44
58967;BME280;44744;51.894;5.080;2023-09-30T05:08:49;102647.77;;;12.88;87.49
58967;BME280;44744;51.894;5.080;2023-09-30T05:09:49;102646.17;;;12.88;87.48
58967;BME280;44744;51.894;5.080;2023-09-30T05:10:49;102647.77;;;12.87;87.48
58967;BME280;44744;51.894;5.080;2023-09-30T05:11:50;102648.13;;;12.87;87.52
58967;BME280;44744;51.894;5.080;2023-09-30T05:12:50;102646.93;;;12.86;87.56
58967;BME280;44744;51.894;5.080;2023-09-30T05:13:50;102647.95;;;12.87;87.60
58967;BME280;44744;51.894;5.080;2023-09-30T05:14:51;102651.67;;;12.88;87.59
58967;BME280;44744;51.894;5.080;2023-09-30T05:15:52;102649.39;;;12.87;87.68
58967;BME280;44744;51.894;5.080;2023-09-30T05:16:52;102644.63;;;12.87;87.63
58967;BME280;44744;51.894;5.080;2023-09-30T05:17:52;102649.77;;;12.86;87.48